Wild Lotus — 3FUT8 — position and weather

sailwx.info

Track history (hours):
 
Tides and Currents Weather Stations Pressure Air Temp Water Temp Dewpoint Dewpoint Depression Visibility Wind Speed Wind Dir Waves Ship Positions

Wild Lotus

Last reported at 2018-Apr-26 00:41 UTC. Time now 2018-May-25 09:17 UTC.
Position N 09°11' W 079°53'.
Warning: this ship's position is 29 days out of date.

; draft 7.8 m.

Type: Ship (hazmat cat A). MMSI: 352408000.

Date/timePositionNaut miles runAvg speedWind from/ knotsBaromVisibWave heightAir tempDewpointWater temp
2018-Apr-26 00:41N 09°11' W 079°53'312.0
2018-Apr-26 00:27N 09°13' W 079°55'3 7.4
2018-Apr-26 00:00N 09°16' W 079°55'0 0.4
2018-Apr-25 23:29N 09°16' W 079°55'0 0.5
2018-Apr-25 22:58N 09°17' W 079°55'1 2.2
2018-Apr-25 22:30N 09°18' W 079°55'3 6.5
2018-Apr-25 22:01N 09°21' W 079°55'2 3.2
2018-Apr-25 21:30N 09°22' W 079°55'0 0.0
2018-Apr-25 21:00N 09°22' W 079°55'0 0.0
2018-Apr-25 20:30N 09°22' W 079°55'0 0.0
2018-Apr-25 20:00N 09°22' W 079°55'0 0.0
2018-Apr-25 19:30N 09°22' W 079°55'0 0.0
2018-Apr-25 19:00N 09°22' W 079°55'0 0.0
2018-Apr-25 18:30N 09°22' W 079°55'0 0.0
2018-Apr-25 18:00N 09°22' W 079°55'0 0.0
2018-Apr-25 17:30N 09°22' W 079°55'0 0.0
2018-Apr-25 17:00N 09°22' W 079°55'0 0.0
2018-Apr-25 16:30N 09°22' W 079°55'0 0.0
2018-Apr-25 16:00N 09°22' W 079°55'0 0.0
2018-Apr-25 15:30N 09°22' W 079°55'0 0.0
2018-Apr-25 15:00N 09°22' W 079°55'0 0.0
2018-Apr-25 14:30N 09°22' W 079°55'0 0.0
2018-Apr-25 14:00N 09°22' W 079°55'0 0.0
2018-Apr-25 13:30N 09°22' W 079°55'0 0.0
2018-Apr-25 13:00N 09°22' W 079°55'0 0.0
2018-Apr-25 12:30N 09°22' W 079°55'0 0.0
2018-Apr-25 11:57N 09°22' W 079°55'0 0.0
2018-Apr-25 11:30N 09°22' W 079°55'0 0.0
2018-Apr-25 11:00N 09°22' W 079°55'0 0.0
2018-Apr-25 10:30N 09°22' W 079°55'0 0.0
2018-Apr-25 10:00N 09°22' W 079°55'0 0.0
2018-Apr-25 09:30N 09°22' W 079°55'0 0.0
2018-Apr-25 09:00N 09°22' W 079°55'0 0.0
2018-Apr-25 08:30N 09°22' W 079°55'0 0.0
2018-Apr-25 08:00N 09°22' W 079°55'0 0.2
2018-Apr-25 07:30N 09°23' W 079°55'2 3.4
2018-Apr-25 07:00N 09°24' W 079°55'713.2
2018-Apr-25 06:30N 09°31' W 079°54'  
2018-Apr-22 19:24N 16°18' W 062°40'717.3
2018-Apr-22 19:00N 16°20' W 062°34'1217.6
2018-Apr-22 18:19N 16°25' W 062°22'617.8
2018-Apr-22 18:00N 16°27' W 062°17'918.0
2018-Apr-22 17:30N 16°30' W 062°08'918.7
2018-Apr-22 17:00N 16°33' W 061°59'919.0
2018-Apr-22 16:30N 16°37' W 061°50'918.7
2018-Apr-22 16:00N 16°40' W 061°40'918.6
2018-Apr-22 15:31N 16°42' W 061°31'918.3
2018-Apr-22 15:00N 16°45' W 061°22'918.3
2018-Apr-22 14:30N 16°48' W 061°13'918.7
2018-Apr-22 14:00N 16°50' W 061°03'  
Track history (hours):
 
Tides and Currents Weather Stations Pressure Air Temp Water Temp Dewpoint Dewpoint Depression Visibility Wind Speed Wind Dir Waves Ship Positions

Wild Lotus

Last reported at 2018-Apr-26 00:41 UTC. Time now 2018-May-25 09:17 UTC.
Position N 09°11' W 079°53'.
Warning: this ship's position is 29 days out of date.

; draft 7.8 m.

Type: Ship (hazmat cat A). MMSI: 352408000.

Date/timePositionNaut miles runAvg speedWind from/ knotsBaromVisibWave heightAir tempDewpointWater temp
2018-Apr-26 00:41N 09°11' W 079°53'312.0
2018-Apr-26 00:27N 09°13' W 079°55'3 7.4
2018-Apr-26 00:00N 09°16' W 079°55'0 0.4
2018-Apr-25 23:29N 09°16' W 079°55'0 0.5
2018-Apr-25 22:58N 09°17' W 079°55'1 2.2
2018-Apr-25 22:30N 09°18' W 079°55'3 6.5
2018-Apr-25 22:01N 09°21' W 079°55'2 3.2
2018-Apr-25 21:30N 09°22' W 079°55'0 0.0
2018-Apr-25 21:00N 09°22' W 079°55'0 0.0
2018-Apr-25 20:30N 09°22' W 079°55'0 0.0
2018-Apr-25 20:00N 09°22' W 079°55'0 0.0
2018-Apr-25 19:30N 09°22' W 079°55'0 0.0
2018-Apr-25 19:00N 09°22' W 079°55'0 0.0
2018-Apr-25 18:30N 09°22' W 079°55'0 0.0
2018-Apr-25 18:00N 09°22' W 079°55'0 0.0
2018-Apr-25 17:30N 09°22' W 079°55'0 0.0
2018-Apr-25 17:00N 09°22' W 079°55'0 0.0
2018-Apr-25 16:30N 09°22' W 079°55'0 0.0
2018-Apr-25 16:00N 09°22' W 079°55'0 0.0
2018-Apr-25 15:30N 09°22' W 079°55'0 0.0
2018-Apr-25 15:00N 09°22' W 079°55'0 0.0
2018-Apr-25 14:30N 09°22' W 079°55'0 0.0
2018-Apr-25 14:00N 09°22' W 079°55'0 0.0
2018-Apr-25 13:30N 09°22' W 079°55'0 0.0
2018-Apr-25 13:00N 09°22' W 079°55'0 0.0
2018-Apr-25 12:30N 09°22' W 079°55'0 0.0
2018-Apr-25 11:57N 09°22' W 079°55'0 0.0
2018-Apr-25 11:30N 09°22' W 079°55'0 0.0
2018-Apr-25 11:00N 09°22' W 079°55'0 0.0
2018-Apr-25 10:30N 09°22' W 079°55'0 0.0
2018-Apr-25 10:00N 09°22' W 079°55'0 0.0
2018-Apr-25 09:30N 09°22' W 079°55'0 0.0
2018-Apr-25 09:00N 09°22' W 079°55'0 0.0
2018-Apr-25 08:30N 09°22' W 079°55'0 0.0
2018-Apr-25 08:00N 09°22' W 079°55'0 0.2
2018-Apr-25 07:30N 09°23' W 079°55'2 3.4
2018-Apr-25 07:00N 09°24' W 079°55'713.2
2018-Apr-25 06:30N 09°31' W 079°54'  
2018-Apr-22 19:24N 16°18' W 062°40'717.3
2018-Apr-22 19:00N 16°20' W 062°34'1217.6
2018-Apr-22 18:19N 16°25' W 062°22'617.8
2018-Apr-22 18:00N 16°27' W 062°17'918.0
2018-Apr-22 17:30N 16°30' W 062°08'918.7
2018-Apr-22 17:00N 16°33' W 061°59'919.0
2018-Apr-22 16:30N 16°37' W 061°50'918.7
2018-Apr-22 16:00N 16°40' W 061°40'918.6
2018-Apr-22 15:31N 16°42' W 061°31'918.3
2018-Apr-22 15:00N 16°45' W 061°22'918.3
2018-Apr-22 14:30N 16°48' W 061°13'918.7
2018-Apr-22 14:00N 16°50' W 061°03'  

Dump ship's entire track history